Time;durP1;ratioP1;P1;durP2;ratioP2;P2;SDS_P1;SDS_P2;PMS_P1;PMS_P2;Temp;Humidity;BMP_temperature;BMP_pressure;BME280_temperature;BME280_humidity;BME280_pressure;Samples;Min_cycle;Max_cycle;Signal;HPM_P1;HPM_P2
2023/09/26 00:01:14;;;;;;;;;;;;;;;;;;4965311;28;19926;-82
2023/09/26 00:03:40;;;;;;;;;;;;;;;;;;4942970;28;19931;-84
2023/09/26 00:06:06;;;;;;;;;;;;;;;;;;4948142;28;19926;-84
2023/09/26 00:08:33;;;;;;;;;;;;;;;;;;4944296;28;19922;-84
2023/09/26 00:10:59;;;;;;;;;;;;;;;;;;4942481;28;20397;-80
2023/09/26 00:13:25;;;;;;;;;;;;;;;;;;4943801;28;19930;-84
2023/09/26 00:15:51;;;;;;;;;;;;;;;;;;4944005;28;19933;-82
2023/09/26 00:18:17;;;;;;;;;;;;;;;;;;4928788;28;19965;-84
2023/09/26 00:20:44;;;;;;;;;;;;;;;;;;4959303;28;20000;-83
2023/09/26 00:23:11;;;;;;;;;;;;;;;;;;4928303;28;19944;-83
2023/09/26 00:25:37;;;;;;;;;;;;;;;;;;4941096;28;19932;-84
2023/09/26 00:28:03;;;;;;;;;;;;;;;;;;4943012;28;19922;-83
2023/09/26 00:30:29;;;;;;;;;;;;;;;;;;4926233;28;19922;-82
2023/09/26 00:32:55;;;;;;;;;;;;;;;;;;4944700;28;19930;-83
2023/09/26 00:35:21;;;;;;;;;;;;;;;;;;4957971;28;20324;-83
2023/09/26 00:37:47;;;;;;;;;;;;;;;;;;4941194;28;20073;-81
2023/09/26 00:40:18;;;;;;;;;;;;;;;;;;4943057;28;20290;-82
2023/09/26 00:42:44;;;;;;;;;;;;;;;;;;4943280;28;19926;-84
2023/09/26 00:45:11;;;;;;;;;;;;;;;;;;4943799;28;19926;-83
2023/09/26 00:47:37;;;;;;;;;;;;;;;;;;4961556;28;20286;-84
2023/09/26 00:50:03;;;;;;;;;;;;;;;;;;4961263;28;20644;-82
2023/09/26 00:52:29;;;;;;;;;;;;;;;;;;4939628;28;19926;-83
2023/09/26 00:54:55;;;;;;;;;;;;;;;;;;4928239;28;19926;-83
2023/09/26 00:57:21;;;;;;;;;;;;;;;;;;4943261;28;20009;-83
2023/09/26 00:59:47;;;;;;;;;;;;;;;;;;4939077;28;20045;-83
2023/09/26 01:02:13;;;;;;;;;;;;;;;;;;4975517;28;20004;-83
2023/09/26 01:04:39;;;;;;;;;;;;;;;;;;4938337;28;19926;-83
2023/09/26 01:07:05;;;;;;;;;;;;;;;;;;4940623;28;19926;-84
2023/09/26 01:09:30;;;;;;;;;;;;;;;;;;4942558;28;20012;-84
2023/09/26 01:11:56;;;;;;;;;;;;;;;;;;4943525;28;19926;-84
2023/09/26 01:14:22;;;;;;;;;;;;;;;;;;4940652;28;19929;-84
2023/09/26 01:16:48;;;;;;;;;;;;;;;;;;4943993;28;20526;-83
2023/09/26 01:19:14;;;;;;;;;;;;;;;;;;4925796;28;20033;-84
2023/09/26 01:21:40;;;;;;;;;;;;;;;;;;4956116;28;20057;-85
2023/09/26 01:24:06;;;;;;;;;;;;;;;;;;4927778;28;19937;-83
2023/09/26 01:26:32;;;;;;;;;;;;;;;;;;4941774;28;19965;-84
2023/09/26 01:28:58;;;;;;;;;;;;;;;;;;4941613;28;19996;-83
2023/09/26 01:31:23;;;;;;;;;;;;;;;;;;4942564;28;19922;-81
2023/09/26 01:33:49;;;;;;;;;;;;;;;;;;4927864;28;20398;-82
2023/09/26 01:36:15;;;;;;;;;;;;;;;;;;4958769;28;19976;-83
2023/09/26 01:38:41;;;;;;;;;;;;;;;;;;4926472;28;19932;-82
2023/09/26 01:41:07;;;;;;;;;;;;;;;;;;4928744;28;20338;-83
2023/09/26 01:43:34;;;;;;;;;;;;;;;;;;4939329;28;19977;-82
2023/09/26 01:46:00;;;;;;;;;;;;;;;;;;4941730;28;19936;-82
2023/09/26 01:48:26;;;;;;;;;;;;;;;;;;4942399;28;19922;-83
2023/09/26 01:50:53;;;;;;;;;;;;;;;;;;4933129;29;20006;-84
2023/09/26 01:53:18;;;;;;;;;;;;;;;;;;4918994;29;19926;-85
2023/09/26 01:55:44;;;;;;;;;;;;;;;;;;4954270;28;19977;-84
2023/09/26 01:58:10;;;;;;;;;;;;;;;;;;4922877;29;19922;-86
2023/09/26 02:00:36;;;;;;;;;;;;;;;;;;4907980;29;19949;-82
2023/09/26 02:03:02;;;;;;;;;;;;;;;;;;4922370;29;19926;-84
2023/09/26 02:05:28;;;;;;;;;;;;;;;;;;4920987;29;19956;-86
2023/09/26 02:07:54;;;;;;;;;;;;;;;;;;4936549;28;20046;-86
2023/09/26 02:10:20;;;;;;;;;;;;;;;;;;4921014;29;19931;-85
2023/09/26 02:12:46;;;;;;;;;;;;;;;;;;4923544;29;19926;-84
2023/09/26 02:15:12;;;;;;;;;;;;;;;;;;4922355;28;19931;-84
2023/09/26 02:17:39;;;;;;;;;;;;;;;;;;4924703;29;19933;-83
2023/09/26 02:20:08;;;;;;;;;;;;;;;;;;4919458;29;19923;-85
2023/09/26 02:22:34;;;;;;;;;;;;;;;;;;4923362;29;19934;-82
2023/09/26 02:24:59;;;;;;;;;;;;;;;;;;4938317;29;19930;-85
2023/09/26 02:27:25;;;;;;;;;;;;;;;;;;4954598;28;19966;-84
2023/09/26 02:29:51;;;;;;;;;;;;;;;;;;4921376;29;19989;-83
2023/09/26 02:32:17;;;;;;;;;;;;;;;;;;4920350;29;19950;-84
2023/09/26 02:34:43;;;;;;;;;;;;;;;;;;4921945;29;20383;-85
2023/09/26 02:37:09;;;;;;;;;;;;;;;;;;4953563;28;20020;-83
2023/09/26 02:39:35;;;;;;;;;;;;;;;;;;4922408;29;19949;-84
2023/09/26 02:42:01;;;;;;;;;;;;;;;;;;4922200;29;19974;-84
2023/09/26 02:44:26;;;;;;;;;;;;;;;;;;4923176;29;20009;-84
2023/09/26 02:46:52;;;;;;;;;;;;;;;;;;4921226;29;19926;-83
2023/09/26 02:49:18;;;;;;;;;;;;;;;;;;4922915;28;19961;-84
2023/09/26 02:51:44;;;;;;;;;;;;;;;;;;4937806;28;19933;-85
2023/09/26 02:54:10;;;;;;;;;;;;;;;;;;4941883;28;20042;-84
2023/09/26 02:56:36;;;;;;;;;;;;;;;;;;4953443;28;20275;-85
2023/09/26 02:59:02;;;;;;;;;;;;;;;;;;4939006;28;20276;-85
2023/09/26 03:01:28;;;;;;;;;;;;;;;;;;4940206;28;19969;-84
2023/09/26 03:03:54;;;;;;;;;;;;;;;;;;4936602;28;19989;-84
2023/09/26 03:06:20;;;;;;;;;;;;;;;;;;4939547;28;20464;-84
2023/09/26 03:08:46;;;;;;;;;;;;;;;;;;4939913;28;19927;-84
2023/09/26 03:11:12;;;;;;;;;;;;;;;;;;4934455;28;19976;-85
2023/09/26 03:13:38;;;;;;;;;;;;;;;;;;4924676;28;19930;-84
2023/09/26 03:16:07;;;;;;;;;;;;;;;;;;4941543;28;19922;-82
2023/09/26 03:18:33;;;;;;;;;;;;;;;;;;4953414;28;19925;-84
2023/09/26 03:20:58;;;;;;;;;;;;;;;;;;4925147;28;19933;-85
2023/09/26 03:23:25;;;;;;;;;;;;;;;;;;4941458;28;19934;-84
2023/09/26 03:25:51;;;;;;;;;;;;;;;;;;4971313;28;19921;-85
2023/09/26 03:28:16;;;;;;;;;;;;;;;;;;4940068;28;19973;-84
2023/09/26 03:30:43;;;;;;;;;;;;;;;;;;4955058;28;19925;-84
2023/09/26 03:33:09;;;;;;;;;;;;;;;;;;4942100;28;19930;-83
2023/09/26 03:35:35;;;;;;;;;;;;;;;;;;4939320;28;20514;-84
2023/09/26 03:38:01;;;;;;;;;;;;;;;;;;4941742;28;19922;-84
2023/09/26 03:40:27;;;;;;;;;;;;;;;;;;4925677;28;19933;-84
2023/09/26 03:42:53;;;;;;;;;;;;;;;;;;4941484;28;19918;-84
2023/09/26 03:45:19;;;;;;;;;;;;;;;;;;4972300;28;19929;-83
2023/09/26 03:47:45;;;;;;;;;;;;;;;;;;4941413;28;19921;-84
2023/09/26 03:50:11;;;;;;;;;;;;;;;;;;4956890;28;20657;-84
2023/09/26 03:52:37;;;;;;;;;;;;;;;;;;4957118;28;20018;-85
2023/09/26 03:55:03;;;;;;;;;;;;;;;;;;4940234;28;19953;-83
2023/09/26 03:57:29;;;;;;;;;;;;;;;;;;4923778;28;20385;-84
2023/09/26 03:59:54;;;;;;;;;;;;;;;;;;4941846;28;19926;-82
2023/09/26 04:02:20;;;;;;;;;;;;;;;;;;4939163;28;19932;-82
2023/09/26 04:04:46;;;;;;;;;;;;;;;;;;4941149;28;19957;-85
2023/09/26 04:07:12;;;;;;;;;;;;;;;;;;4940417;28;19922;-83
2023/09/26 04:09:38;;;;;;;;;;;;;;;;;;4956232;28;19922;-83
2023/09/26 04:12:04;;;;;;;;;;;;;;;;;;4941610;28;19926;-85
2023/09/26 04:14:30;;;;;;;;;;;;;;;;;;4937126;28;19980;-84
2023/09/26 04:16:56;;;;;;;;;;;;;;;;;;4942240;28;19933;-83
2023/09/26 04:19:22;;;;;;;;;;;;;;;;;;4924039;28;19933;-85
2023/09/26 04:21:48;;;;;;;;;;;;;;;;;;4941247;28;19926;-84
2023/09/26 04:24:14;;;;;;;;;;;;;;;;;;4928914;28;19934;-82
2023/09/26 04:26:40;;;;;;;;;;;;;;;;;;4925854;28;20399;-84
2023/09/26 04:29:06;;;;;;;;;;;;;;;;;;4944213;28;20514;-83
2023/09/26 04:31:32;;;;;;;;;;;;;;;;;;4939797;28;20443;-83
2023/09/26 04:33:58;;;;;;;;;;;;;;;;;;4961716;28;19945;-83
2023/09/26 04:36:24;;;;;;;;;;;;;;;;;;4942210;28;20453;-83
2023/09/26 04:38:50;;;;;;;;;;;;;;;;;;4944438;28;19992;-83
2023/09/26 04:41:16;;;;;;;;;;;;;;;;;;4924694;28;20374;-82
2023/09/26 04:43:42;;;;;;;;;;;;;;;;;;4944238;28;19926;-85
2023/09/26 04:46:08;;;;;;;;;;;;;;;;;;4942542;28;19933;-83
2023/09/26 04:48:34;;;;;;;;;;;;;;;;;;4942698;28;19918;-84
2023/09/26 04:51:00;;;;;;;;;;;;;;;;;;4934010;28;20407;-84
2023/09/26 04:53:25;;;;;;;;;;;;;;;;;;4908556;29;19929;-82
2023/09/26 04:55:51;;;;;;;;;;;;;;;;;;4923662;29;19941;-84
2023/09/26 04:58:17;;;;;;;;;;;;;;;;;;4955685;28;20326;-82
2023/09/26 05:00:43;;;;;;;;;;;;;;;;;;4908140;29;19930;-83
2023/09/26 05:03:10;;;;;;;;;;;;;;;;;;4923783;29;19926;-83
2023/09/26 05:05:36;;;;;;;;;;;;;;;;;;4956906;28;19926;-84
2023/09/26 05:08:01;;;;;;;;;;;;;;;;;;4923060;29;19922;-84
2023/09/26 05:10:27;;;;;;;;;;;;;;;;;;4922388;29;19977;-83
2023/09/26 05:12:53;;;;;;;;;;;;;;;;;;4925356;29;20445;-83
2023/09/26 05:15:19;;;;;;;;;;;;;;;;;;4919030;29;20441;-83
2023/09/26 05:17:45;;;;;;;;;;;;;;;;;;4942839;28;19926;-84
2023/09/26 05:20:11;;;;;;;;;;;;;;;;;;4923143;29;19922;-83
2023/09/26 05:22:37;;;;;;;;;;;;;;;;;;4922930;29;20008;-85
2023/09/26 05:25:03;;;;;;;;;;;;;;;;;;4922752;29;19941;-82
2023/09/26 05:27:29;;;;;;;;;;;;;;;;;;4940259;28;20680;-84
2023/09/26 05:29:55;;;;;;;;;;;;;;;;;;4908452;29;19989;-82
2023/09/26 05:32:21;;;;;;;;;;;;;;;;;;4922730;29;20437;-84
2023/09/26 05:34:47;;;;;;;;;;;;;;;;;;4925235;29;19928;-84
2023/09/26 05:37:13;;;;;;;;;;;;;;;;;;4907588;29;19926;-84
2023/09/26 05:39:38;;;;;;;;;;;;;;;;;;4923986;29;20383;-84
2023/09/26 05:42:04;;;;;;;;;;;;;;;;;;4921002;29;20765;-81
2023/09/26 05:44:30;;;;;;;;;;;;;;;;;;4908121;29;19990;-83
2023/09/26 05:46:56;;;;;;;;;;;;;;;;;;4906793;29;19981;-84
2023/09/26 05:49:22;;;;;;;;;;;;;;;;;;4950084;28;19986;-83
2023/09/26 05:51:48;;;;;;;;;;;;;;;;;;4972477;28;20029;-83
2023/09/26 05:54:14;;;;;;;;;;;;;;;;;;4963061;28;20045;-84
2023/09/26 05:56:40;;;;;;;;;;;;;;;;;;4970841;28;19922;-83
2023/09/26 05:59:06;;;;;;;;;;;;;;;;;;4942171;28;20013;-84
2023/09/26 06:01:32;;;;;;;;;;;;;;;;;;4944068;28;19937;-83
2023/09/26 06:03:58;;;;;;;;;;;;;;;;;;4936053;28;19926;-86
2023/09/26 06:06:24;;;;;;;;;;;;;;;;;;4940189;28;20000;-85
2023/09/26 06:08:50;;;;;;;;;;;;;;;;;;4932678;28;19927;-86
2023/09/26 06:11:16;;;;;;;;;;;;;;;;;;4962198;28;19922;-84
2023/09/26 06:13:44;;;;;;;;;;;;;;;;;;4975811;28;19926;-84
2023/09/26 06:16:10;;;;;;;;;;;;;;;;;;4951891;28;20366;-84
2023/09/26 06:18:36;;;;;;;;;;;;;;;;;;4947932;28;19928;-85
2023/09/26 06:21:02;;;;;;;;;;;;;;;;;;4966528;28;19926;-84
2023/09/26 06:23:29;;;;;;;;;;;;;;;;;;4946512;28;19926;-85
2023/09/26 06:25:55;;;;;;;;;;;;;;;;;;4965464;28;19930;-85
2023/09/26 06:28:21;;;;;;;;;;;;;;;;;;4962968;28;19922;-84
2023/09/26 06:30:48;;;;;;;;;;;;;;;;;;4971557;28;19952;-84
2023/09/26 06:33:14;;;;;;;;;;;;;;;;;;4946275;28;19964;-83
2023/09/26 06:35:40;;;;;;;;;;;;;;;;;;4944872;28;19926;-83
2023/09/26 06:38:06;;;;;;;;;;;;;;;;;;4940085;28;19922;-83
2023/09/26 06:40:32;;;;;;;;;;;;;;;;;;4944112;28;19929;-84
2023/09/26 06:43:00;;;;;;;;;;;;;;;;;;4941974;28;19926;-84
2023/09/26 06:45:26;;;;;;;;;;;;;;;;;;4941501;28;19926;-84
2023/09/26 06:47:52;;;;;;;;;;;;;;;;;;4947927;28;19929;-83
2023/09/26 06:50:18;;;;;;;;;;;;;;;;;;4959688;28;20024;-84
2023/09/26 06:52:43;;;;;;;;;;;;;;;;;;4940170;28;19929;-82
2023/09/26 06:55:10;;;;;;;;;;;;;;;;;;4935227;28;20457;-85
2023/09/26 06:57:36;;;;;;;;;;;;;;;;;;4937602;28;20013;-84
2023/09/26 07:00:05;;;;;;;;;;;;;;;;;;4938458;28;19944;-85
2023/09/26 07:02:31;;;;;;;;;;;;;;;;;;4956254;28;20374;-85
2023/09/26 07:04:57;;;;;;;;;;;;;;;;;;4933783;28;19929;-84
2023/09/26 07:07:23;;;;;;;;;;;;;;;;;;4934586;28;19931;-84
2023/09/26 07:09:49;;;;;;;;;;;;;;;;;;4936965;28;20727;-84
2023/09/26 07:12:17;;;;;;;;;;;;;;;;;;4939583;28;19926;-84
2023/09/26 07:14:43;;;;;;;;;;;;;;;;;;4971961;28;19929;-85
2023/09/26 07:17:09;;;;;;;;;;;;;;;;;;4938358;28;21690;-85
2023/09/26 07:19:35;;;;;;;;;;;;;;;;;;4957220;28;20397;-85
2023/09/26 07:22:01;;;;;;;;;;;;;;;;;;4958321;28;20460;-85
2023/09/26 07:24:27;;;;;;;;;;;;;;;;;;4937422;28;19922;-83
2023/09/26 07:26:53;;;;;;;;;;;;;;;;;;4934973;28;19930;-84
2023/09/26 07:29:19;;;;;;;;;;;;;;;;;;4957972;28;20353;-84
2023/09/26 07:31:46;;;;;;;;;;;;;;;;;;4956797;28;19926;-84
2023/09/26 07:34:11;;;;;;;;;;;;;;;;;;4936998;28;19972;-84
2023/09/26 07:36:37;;;;;;;;;;;;;;;;;;4932005;28;20016;-84
2023/09/26 07:39:04;;;;;;;;;;;;;;;;;;4956765;28;19929;-83
2023/09/26 07:41:30;;;;;;;;;;;;;;;;;;4957845;28;19926;-84
2023/09/26 07:43:56;;;;;;;;;;;;;;;;;;4972708;28;19934;-84
2023/09/26 07:46:22;;;;;;;;;;;;;;;;;;4936560;28;20560;-82
2023/09/26 07:48:49;;;;;;;;;;;;;;;;;;4959277;28;19977;-84
2023/09/26 07:51:16;;;;;;;;;;;;;;;;;;4963330;28;19981;-83
2023/09/26 07:53:42;;;;;;;;;;;;;;;;;;4917067;29;19934;-83
2023/09/26 07:56:08;;;;;;;;;;;;;;;;;;4937532;28;19969;-85
2023/09/26 07:58:34;;;;;;;;;;;;;;;;;;4955838;28;20048;-84
2023/09/26 08:01:06;;;;;;;;;;;;;;;;;;4918962;29;20417;-85
2023/09/26 08:03:32;;;;;;;;;;;;;;;;;;4922447;29;20387;-85
2023/09/26 08:05:57;;;;;;;;;;;;;;;;;;4924397;29;19933;-85
2023/09/26 08:08:24;;;;;;;;;;;;;;;;;;4917334;29;19963;-85
2023/09/26 08:10:50;;;;;;;;;;;;;;;;;;4913878;29;19988;-83
2023/09/26 08:13:16;;;;;;;;;;;;;;;;;;4925093;29;19923;-85
2023/09/26 08:15:42;;;;;;;;;;;;;;;;;;4918213;29;19930;-85
2023/09/26 08:18:08;;;;;;;;;;;;;;;;;;4942344;28;19934;-84
2023/09/26 08:20:33;;;;;;;;;;;;;;;;;;4941860;28;20021;-85
2023/09/26 08:22:59;;;;;;;;;;;;;;;;;;4925325;29;19978;-86
2023/09/26 08:25:25;;;;;;;;;;;;;;;;;;4907828;29;19934;-84
2023/09/26 08:27:51;;;;;;;;;;;;;;;;;;4918606;29;20041;-84
2023/09/26 08:30:17;;;;;;;;;;;;;;;;;;4921502;29;19927;-87
2023/09/26 08:32:43;;;;;;;;;;;;;;;;;;4955518;28;19966;-85
2023/09/26 08:35:09;;;;;;;;;;;;;;;;;;4940618;29;19926;-85
2023/09/26 08:37:35;;;;;;;;;;;;;;;;;;4915121;29;20029;-85
2023/09/26 08:40:01;;;;;;;;;;;;;;;;;;4936156;29;20929;-85
2023/09/26 08:42:27;;;;;;;;;;;;;;;;;;4927158;29;19926;-84
2023/09/26 08:44:53;;;;;;;;;;;;;;;;;;4919065;29;19926;-86
2023/09/26 08:47:19;;;;;;;;;;;;;;;;;;4923661;29;20036;-86
2023/09/26 08:49:45;;;;;;;;;;;;;;;;;;4929559;29;19969;-85
2023/09/26 08:52:11;;;;;;;;;;;;;;;;;;4938127;28;20286;-86
2023/09/26 08:54:37;;;;;;;;;;;;;;;;;;4920361;29;19931;-86
2023/09/26 08:57:03;;;;;;;;;;;;;;;;;;4922333;29;20339;-86
2023/09/26 08:59:28;;;;;;;;;;;;;;;;;;4935842;29;19926;-85
2023/09/26 09:01:54;;;;;;;;;;;;;;;;;;4919071;28;19926;-85
2023/09/26 09:04:21;;;;;;;;;;;;;;;;;;4917777;29;19926;-85
2023/09/26 09:06:47;;;;;;;;;;;;;;;;;;4941370;28;19965;-85
2023/09/26 09:09:16;;;;;;;;;;;;;;;;;;4927746;29;20383;-85
2023/09/26 09:11:42;;;;;;;;;;;;;;;;;;4956408;28;19926;-85
2023/09/26 09:14:08;;;;;;;;;;;;;;;;;;4941710;29;19934;-85
2023/09/26 09:16:34;;;;;;;;;;;;;;;;;;4954164;28;19930;-84
2023/09/26 09:19:00;;;;;;;;;;;;;;;;;;4957275;28;20048;-86
2023/09/26 09:21:33;;;;;;;;;;;;;;;;;;4938374;29;19933;-85
2023/09/26 09:23:59;;;;;;;;;;;;;;;;;;4927977;29;20053;-88
2023/09/26 09:26:25;;;;;;;;;;;;;;;;;;4918444;28;19930;-84
2023/09/26 09:28:55;;;;;;;;;;;;;;;;;;4907251;29;19937;-85
2023/09/26 09:31:21;;;;;;;;;;;;;;;;;;4916855;28;19931;-86
2023/09/26 09:33:47;;;;;;;;;;;;;;;;;;4933359;28;19933;-86
2023/09/26 09:36:13;;;;;;;;;;;;;;;;;;4917632;29;19926;-88
2023/09/26 09:38:41;;;;;;;;;;;;;;;;;;4936315;29;19937;-86
2023/09/26 09:41:07;;;;;;;;;;;;;;;;;;4918777;29;20484;-84
2023/09/26 09:43:33;;;;;;;;;;;;;;;;;;4937247;28;20005;-84
2023/09/26 09:46:00;;;;;;;;;;;;;;;;;;4937080;28;20080;-86
2023/09/26 09:48:26;;;;;;;;;;;;;;;;;;4920818;29;19930;-86
2023/09/26 09:50:52;;;;;;;;;;;;;;;;;;4946542;28;19926;-86
2023/09/26 09:53:18;;;;;;;;;;;;;;;;;;4971281;28;19981;-87
2023/09/26 09:55:46;;;;;;;;;;;;;;;;;;4941645;28;19925;-86
2023/09/26 09:58:15;;;;;;;;;;;;;;;;;;4918625;29;19926;-86
2023/09/26 10:00:41;;;;;;;;;;;;;;;;;;4958399;28;19933;-84
2023/09/26 10:03:07;;;;;;;;;;;;;;;;;;4925295;28;20446;-84
2023/09/26 10:05:34;;;;;;;;;;;;;;;;;;4952505;28;19921;-80
2023/09/26 10:08:00;;;;;;;;;;;;;;;;;;4942202;28;19977;-79
2023/09/26 10:10:26;;;;;;;;;;;;;;;;;;4920541;28;19922;-83
2023/09/26 10:12:52;;;;;;;;;;;;;;;;;;4968281;28;19961;-81
2023/09/26 10:15:18;;;;;;;;;;;;;;;;;;4936775;28;20005;-85
2023/09/26 10:17:44;;;;;;;;;;;;;;;;;;4940835;28;19930;-83
2023/09/26 10:20:10;;;;;;;;;;;;;;;;;;4936718;28;20776;-89
2023/09/26 10:22:36;;;;;;;;;;;;;;;;;;4939512;28;19926;-89
2023/09/26 10:25:02;;;;;;;;;;;;;;;;;;4952069;28;19929;-89
2023/09/26 10:27:28;;;;;;;;;;;;;;;;;;4937801;28;19969;-87
2023/09/26 10:29:54;;;;;;;;;;;;;;;;;;4964061;28;19930;-83
2023/09/26 10:32:20;;;;;;;;;;;;;;;;;;4945749;28;19932;-88
2023/09/26 10:34:46;;;;;;;;;;;;;;;;;;4940973;28;20295;-89
2023/09/26 10:37:12;;;;;;;;;;;;;;;;;;4946709;28;19926;-91
2023/09/26 10:39:38;;;;;;;;;;;;;;;;;;4945576;28;21665;-87
2023/09/26 10:42:04;;;;;;;;;;;;;;;;;;4938736;28;19937;-82
2023/09/26 10:44:30;;;;;;;;;;;;;;;;;;4943997;28;19925;-89
2023/09/26 10:46:56;;;;;;;;;;;;;;;;;;4939721;28;19926;-87
2023/09/26 10:49:22;;;;;;;;;;;;;;;;;;4942122;28;20626;-89
2023/09/26 10:51:48;;;;;;;;;;;;;;;;;;4922542;29;19937;-86
2023/09/26 10:54:14;;;;;;;;;;;;;;;;;;4919934;28;20017;-86
2023/09/26 10:56:41;;;;;;;;;;;;;;;;;;4937807;28;19933;-90
2023/09/26 10:59:07;;;;;;;;;;;;;;;;;;4938295;28;20312;-84
2023/09/26 11:01:33;;;;;;;;;;;;;;;;;;4936108;28;19922;-85
2023/09/26 11:03:59;;;;;;;;;;;;;;;;;;4939005;28;19926;-83
2023/09/26 11:06:24;;;;;;;;;;;;;;;;;;4934862;28;19926;-89
2023/09/26 11:08:50;;;;;;;;;;;;;;;;;;4929882;29;19926;-88
2023/09/26 11:11:18;;;;;;;;;;;;;;;;;;4938003;29;20112;-83
2023/09/26 11:13:44;;;;;;;;;;;;;;;;;;4938797;29;19932;-88
2023/09/26 11:16:10;;;;;;;;;;;;;;;;;;4921218;29;20328;-88
2023/09/26 11:18:36;;;;;;;;;;;;;;;;;;4935711;29;19961;-84
2023/09/26 11:21:02;;;;;;;;;;;;;;;;;;4938496;28;19934;-88
2023/09/26 11:23:28;;;;;;;;;;;;;;;;;;4919224;29;19934;-86
2023/09/26 11:25:56;;;;;;;;;;;;;;;;;;4921181;29;19931;-92
2023/09/26 11:28:22;;;;;;;;;;;;;;;;;;4922158;28;20524;-89
2023/09/26 11:30:48;;;;;;;;;;;;;;;;;;4921832;29;20005;-91
2023/09/26 11:33:14;;;;;;;;;;;;;;;;;;4922228;29;20078;-88
2023/09/26 11:35:40;;;;;;;;;;;;;;;;;;4921548;29;19926;-87
2023/09/26 11:38:06;;;;;;;;;;;;;;;;;;4936974;29;19985;-88
2023/09/26 11:40:32;;;;;;;;;;;;;;;;;;4940199;29;20350;-89
2023/09/26 11:42:58;;;;;;;;;;;;;;;;;;4945131;29;19926;-88
2023/09/26 11:45:24;;;;;;;;;;;;;;;;;;4927250;29;19926;-89
2023/09/26 11:47:50;;;;;;;;;;;;;;;;;;4929981;29;20313;-89
2023/09/26 11:50:16;;;;;;;;;;;;;;;;;;4930206;28;20417;-86
2023/09/26 11:52:42;;;;;;;;;;;;;;;;;;4943601;28;19933;-87
2023/09/26 11:55:08;;;;;;;;;;;;;;;;;;4925824;28;19926;-87
2023/09/26 11:57:34;;;;;;;;;;;;;;;;;;4939235;28;19930;-86
2023/09/26 12:00:11;;;;;;;;;;;;;;;;;;4940453;28;20374;-87
2023/09/26 12:02:38;;;;;;;;;;;;;;;;;;4923760;28;20329;-87
2023/09/26 12:05:06;;;;;;;;;;;;;;;;;;4925030;28;19926;-88
2023/09/26 12:07:33;;;;;;;;;;;;;;;;;;4940664;28;19930;-86
2023/09/26 12:09:59;;;;;;;;;;;;;;;;;;4924484;28;20401;-86
2023/09/26 12:12:24;;;;;;;;;;;;;;;;;;4943366;28;19965;-86
2023/09/26 12:14:50;;;;;;;;;;;;;;;;;;4965230;28;19945;-87
2023/09/26 12:17:19;;;;;;;;;;;;;;;;;;4958443;28;19925;-84
2023/09/26 12:19:58;;;;;;;;;;;;;;;;;;4945572;28;19926;-88
2023/09/26 12:22:32;;;;;;;;;;;;;;;;;;4927445;28;20065;-86
2023/09/26 12:27:57;;;;;;;;;;;;;;;;;;4958794;28;19932;-89
2023/09/26 12:30:23;;;;;;;;;;;;;;;;;;4926726;28;19932;-90
2023/09/26 12:32:59;;;;;;;;;;;;;;;;;;4942752;28;19921;-90
2023/09/26 12:35:25;;;;;;;;;;;;;;;;;;4928093;28;19918;-91
2023/09/26 12:37:54;;;;;;;;;;;;;;;;;;4929685;28;19930;-89
2023/09/26 12:40:26;;;;;;;;;;;;;;;;;;4961369;28;19936;-86
2023/09/26 12:42:52;;;;;;;;;;;;;;;;;;4959711;28;19926;-84
2023/09/26 12:45:18;;;;;;;;;;;;;;;;;;4959217;28;19977;-89
2023/09/26 12:47:43;;;;;;;;;;;;;;;;;;4931262;28;20455;-88
2023/09/26 12:50:10;;;;;;;;;;;;;;;;;;4961801;28;21043;-90
2023/09/26 12:52:36;;;;;;;;;;;;;;;;;;4961350;28;19930;-90
2023/09/26 12:55:02;;;;;;;;;;;;;;;;;;4943833;28;19983;-88
2023/09/26 12:57:27;;;;;;;;;;;;;;;;;;4925774;28;19926;-88
2023/09/26 12:59:53;;;;;;;;;;;;;;;;;;4964054;28;20012;-86
2023/09/26 13:02:19;;;;;;;;;;;;;;;;;;4979355;28;19937;-85
2023/09/26 13:04:45;;;;;;;;;;;;;;;;;;4945280;28;20647;-88
2023/09/26 13:07:11;;;;;;;;;;;;;;;;;;4935509;28;20377;-88
2023/09/26 13:09:37;;;;;;;;;;;;;;;;;;4944067;28;19933;-92
2023/09/26 13:12:03;;;;;;;;;;;;;;;;;;4940695;28;19926;-91
2023/09/26 13:14:29;;;;;;;;;;;;;;;;;;4976291;28;20028;-90
2023/09/26 13:16:55;;;;;;;;;;;;;;;;;;4958242;28;20024;-90
2023/09/26 13:19:24;;;;;;;;;;;;;;;;;;4977700;28;20754;-90
2023/09/26 13:21:51;;;;;;;;;;;;;;;;;;4974459;28;20740;-91
2023/09/26 13:24:17;;;;;;;;;;;;;;;;;;4943010;28;19937;-88
2023/09/26 13:26:46;;;;;;;;;;;;;;;;;;4957972;28;19926;-91
2023/09/26 13:29:11;;;;;;;;;;;;;;;;;;4961551;28;19926;-86
2023/09/26 13:31:40;;;;;;;;;;;;;;;;;;4925776;28;19933;-89
2023/09/26 13:34:06;;;;;;;;;;;;;;;;;;4960553;28;19964;-87
2023/09/26 13:36:32;;;;;;;;;;;;;;;;;;4945015;28;20053;-90
2023/09/26 13:38:58;;;;;;;;;;;;;;;;;;4939044;28;20458;-85
2023/09/26 13:41:24;;;;;;;;;;;;;;;;;;4958654;28;20000;-89
2023/09/26 13:43:50;;;;;;;;;;;;;;;;;;4925450;28;19931;-89
2023/09/26 13:46:16;;;;;;;;;;;;;;;;;;4937609;28;19927;-88
2023/09/26 13:48:42;;;;;;;;;;;;;;;;;;4940698;28;19926;-89
2023/09/26 13:51:08;;;;;;;;;;;;;;;;;;4939981;28;19981;-91
2023/09/26 13:53:34;;;;;;;;;;;;;;;;;;4931535;29;19923;-86
2023/09/26 13:56:00;;;;;;;;;;;;;;;;;;4932265;29;19977;-90
2023/09/26 13:58:27;;;;;;;;;;;;;;;;;;4929100;29;20321;-91
2023/09/26 14:00:53;;;;;;;;;;;;;;;;;;4944640;29;20390;-90
2023/09/26 14:03:19;;;;;;;;;;;;;;;;;;4953847;28;19926;-91
2023/09/26 14:05:45;;;;;;;;;;;;;;;;;;4932950;29;19919;-88
2023/09/26 14:08:11;;;;;;;;;;;;;;;;;;4964498;28;19981;-84
2023/09/26 14:10:37;;;;;;;;;;;;;;;;;;4955139;28;19926;-84
2023/09/26 14:13:03;;;;;;;;;;;;;;;;;;4934474;29;19997;-87
2023/09/26 14:15:29;;;;;;;;;;;;;;;;;;4912654;29;20430;-88
2023/09/26 14:17:55;;;;;;;;;;;;;;;;;;4946586;29;20488;-90
2023/09/26 14:20:21;;;;;;;;;;;;;;;;;;4913146;29;19927;-91
2023/09/26 14:22:47;;;;;;;;;;;;;;;;;;4946249;29;19934;-89
2023/09/26 14:25:13;;;;;;;;;;;;;;;;;;4928882;28;19926;-87
2023/09/26 14:27:39;;;;;;;;;;;;;;;;;;4959407;28;20013;-90
2023/09/26 14:30:05;;;;;;;;;;;;;;;;;;4912394;29;20362;-86
2023/09/26 14:32:31;;;;;;;;;;;;;;;;;;4944985;29;19934;-86
2023/09/26 14:34:57;;;;;;;;;;;;;;;;;;4959920;28;19926;-84
2023/09/26 14:37:23;;;;;;;;;;;;;;;;;;4943567;29;19933;-88
2023/09/26 14:39:49;;;;;;;;;;;;;;;;;;4944256;29;20294;-90
2023/09/26 14:42:15;;;;;;;;;;;;;;;;;;4926661;28;20012;-84
2023/09/26 14:44:41;;;;;;;;;;;;;;;;;;4951334;28;19926;-89
2023/09/26 14:47:08;;;;;;;;;;;;;;;;;;4957166;29;19930;-87
2023/09/26 14:49:34;;;;;;;;;;;;;;;;;;4952707;29;19968;-87
2023/09/26 14:51:59;;;;;;;;;;;;;;;;;;4970712;28;20742;-85
2023/09/26 14:54:25;;;;;;;;;;;;;;;;;;4948894;28;19926;-90
2023/09/26 14:56:51;;;;;;;;;;;;;;;;;;4979668;28;19925;-84
2023/09/26 14:59:17;;;;;;;;;;;;;;;;;;4979675;28;19948;-85
2023/09/26 15:01:43;;;;;;;;;;;;;;;;;;4962580;28;20192;-89
2023/09/26 15:04:09;;;;;;;;;;;;;;;;;;4980657;28;19922;-86
2023/09/26 15:06:37;;;;;;;;;;;;;;;;;;4949869;28;19932;-87
2023/09/26 15:09:02;;;;;;;;;;;;;;;;;;4980314;28;20361;-84
2023/09/26 15:11:28;;;;;;;;;;;;;;;;;;4968676;28;19929;-86
2023/09/26 15:13:54;;;;;;;;;;;;;;;;;;4948826;28;19926;-90
2023/09/26 15:16:20;;;;;;;;;;;;;;;;;;4963234;28;19922;-86
2023/09/26 15:18:46;;;;;;;;;;;;;;;;;;4945437;28;19926;-87
2023/09/26 15:21:13;;;;;;;;;;;;;;;;;;4946690;28;19926;-89
2023/09/26 15:23:39;;;;;;;;;;;;;;;;;;4985524;28;19922;-91
2023/09/26 15:26:05;;;;;;;;;;;;;;;;;;4972136;28;20323;-85
2023/09/26 15:28:30;;;;;;;;;;;;;;;;;;4985461;28;19926;-86
2023/09/26 15:30:56;;;;;;;;;;;;;;;;;;4981753;28;20402;-87
2023/09/26 15:33:30;;;;;;;;;;;;;;;;;;4944676;28;19985;-88
2023/09/26 15:35:58;;;;;;;;;;;;;;;;;;4969722;28;19925;-91
2023/09/26 15:38:24;;;;;;;;;;;;;;;;;;4960566;28;19933;-88
2023/09/26 15:40:53;;;;;;;;;;;;;;;;;;4969012;28;19932;-92
2023/09/26 15:43:19;;;;;;;;;;;;;;;;;;4969343;28;20001;-86
2023/09/26 15:45:45;;;;;;;;;;;;;;;;;;4958948;28;19932;-84
2023/09/26 15:48:11;;;;;;;;;;;;;;;;;;4962459;28;19976;-90
2023/09/26 15:50:36;;;;;;;;;;;;;;;;;;4978067;28;19926;-89
2023/09/26 15:53:05;;;;;;;;;;;;;;;;;;4975733;28;19922;-85
2023/09/26 15:55:31;;;;;;;;;;;;;;;;;;4953525;28;20302;-85
2023/09/26 15:57:57;;;;;;;;;;;;;;;;;;4963038;28;19929;-84
2023/09/26 16:00:24;;;;;;;;;;;;;;;;;;4962552;28;19926;-83
2023/09/26 16:02:50;;;;;;;;;;;;;;;;;;4963197;28;20378;-84
2023/09/26 16:05:16;;;;;;;;;;;;;;;;;;4964978;28;19926;-85
2023/09/26 16:07:42;;;;;;;;;;;;;;;;;;4949614;28;19936;-82
2023/09/26 16:10:09;;;;;;;;;;;;;;;;;;4943166;28;19929;-84
2023/09/26 16:12:35;;;;;;;;;;;;;;;;;;4943099;28;20349;-84
2023/09/26 16:15:01;;;;;;;;;;;;;;;;;;4928728;28;20711;-84
2023/09/26 16:17:27;;;;;;;;;;;;;;;;;;4946639;28;19945;-85
2023/09/26 16:19:55;;;;;;;;;;;;;;;;;;4964638;28;19926;-83
2023/09/26 16:22:21;;;;;;;;;;;;;;;;;;4960721;28;19973;-86
2023/09/26 16:24:47;;;;;;;;;;;;;;;;;;4937787;28;20722;-85
2023/09/26 16:27:15;;;;;;;;;;;;;;;;;;4943478;28;19930;-84
2023/09/26 16:29:47;;;;;;;;;;;;;;;;;;4927165;28;19942;-85
2023/09/26 16:32:13;;;;;;;;;;;;;;;;;;4942502;28;19977;-85
2023/09/26 16:34:39;;;;;;;;;;;;;;;;;;4941525;28;19988;-81
2023/09/26 16:37:05;;;;;;;;;;;;;;;;;;4958994;28;21823;-84
2023/09/26 16:39:31;;;;;;;;;;;;;;;;;;4943731;28;20325;-85
2023/09/26 16:41:56;;;;;;;;;;;;;;;;;;4960045;28;19926;-84